createdAt,value
2022-12-04T00:00:36.000Z,101934.47
2022-12-04T00:03:03.741Z,101944.88
2022-12-04T00:05:31.409Z,101923.56
2022-12-04T00:07:59.001Z,101942.56
2022-12-04T00:10:26.589Z,101934.38
2022-12-04T00:12:54.084Z,101886.53
2022-12-04T00:15:26.312Z,101927.06
2022-12-04T00:17:54.515Z,101940.47
2022-12-04T00:20:23.137Z,101939.25
2022-12-04T00:22:50.715Z,101940.63
2022-12-04T00:25:18.378Z,101936.59
2022-12-04T00:27:45.976Z,101932.44
2022-12-04T00:30:13.954Z,101926.53
2022-12-04T00:32:41.532Z,101922.13
2022-12-04T00:35:09.871Z,101925.84
2022-12-04T00:37:37.421Z,101927.06
2022-12-04T00:40:05.464Z,101915.97
2022-12-04T00:42:32.962Z,101915.75
2022-12-04T00:45:00.541Z,101915.94
2022-12-04T00:47:28.020Z,101900.63
2022-12-04T00:49:55.852Z,101902.41
2022-12-04T00:52:23.631Z,101901.47
2022-12-04T00:54:51.132Z,101909.78
2022-12-04T00:57:18.652Z,101886.44
2022-12-04T00:59:46.186Z,101899.63
2022-12-04T01:02:13.699Z,101915.06
2022-12-04T01:04:41.145Z,101905.38
2022-12-04T01:07:08.660Z,101900.25
2022-12-04T01:09:36.133Z,101913.09
2022-12-04T01:12:03.661Z,101911.88
2022-12-04T01:14:31.268Z,101906.06
2022-12-04T01:16:58.936Z,101914.53
2022-12-04T01:19:26.544Z,101906.25
2022-12-04T01:21:54.118Z,101905.88
2022-12-04T01:24:21.782Z,101906.69
2022-12-04T01:26:49.286Z,101920.53
2022-12-04T01:29:16.800Z,101913.06
2022-12-04T01:31:44.487Z,101908.19
2022-12-04T01:34:12.124Z,101906.16
2022-12-04T01:36:39.618Z,101910.41
2022-12-04T01:39:07.248Z,101910.41
2022-12-04T01:41:34.753Z,101911.19
2022-12-04T01:44:14.465Z,101907.31
2022-12-04T01:46:43.057Z,101903.09
2022-12-04T01:49:15.585Z,101899.41
2022-12-04T01:51:45.273Z,101913.81
2022-12-04T01:54:22.234Z,101912.97
2022-12-04T01:56:59.329Z,101903.44
2022-12-04T01:59:32.009Z,101914.81
2022-12-04T02:02:12.107Z,101912.44
2022-12-04T02:04:41.719Z,101900.88
2022-12-04T02:07:10.099Z,101911.88
2022-12-04T02:09:39.583Z,101913.38
2022-12-04T02:12:24.483Z,101912.69
2022-12-04T02:15:23.780Z,101913.31
2022-12-04T02:18:04.356Z,101918.59
2022-12-04T02:20:47.456Z,101914.88
2022-12-04T02:23:34.000Z,101902.72
2022-12-04T02:26:29.403Z,101915.25
2022-12-04T02:29:18.080Z,101908.72
2022-12-04T02:31:56.368Z,101904.03
2022-12-04T02:34:30.950Z,101903.88
2022-12-04T02:37:05.558Z,101905.91
2022-12-04T02:39:42.269Z,101902.56
2022-12-04T02:42:17.036Z,101892.41
2022-12-04T02:44:54.340Z,101895.31
2022-12-04T02:47:24.877Z,101900.09
2022-12-04T02:50:00.306Z,101896.91
2022-12-04T02:52:36.412Z,101883.66
2022-12-04T02:55:09.323Z,101891.63
2022-12-04T02:57:42.348Z,101890.72
2022-12-04T03:00:10.874Z,101889.69
2022-12-04T03:02:59.861Z,101883.31
2022-12-04T03:05:35.714Z,101879.81
2022-12-04T03:08:09.084Z,101881.75
2022-12-04T03:10:42.178Z,101883.25
2022-12-04T03:13:24.015Z,101881.19
2022-12-04T03:16:02.911Z,101866.50
2022-12-04T03:18:39.079Z,101878.38
2022-12-04T03:21:11.844Z,101874.84
2022-12-04T03:23:47.612Z,101884.38
2022-12-04T03:26:25.329Z,101876.00
2022-12-04T03:29:08.785Z,101870.03
2022-12-04T03:31:48.572Z,101868.34
2022-12-04T03:34:28.121Z,101864.28
2022-12-04T03:37:04.597Z,101856.84
2022-12-04T03:39:43.274Z,101866.03
2022-12-04T03:42:28.442Z,101845.84
2022-12-04T03:45:20.733Z,101855.31
2022-12-04T03:47:54.557Z,101867.66
2022-12-04T03:50:42.955Z,101856.78
2022-12-04T03:53:31.612Z,101862.19
2022-12-04T03:56:10.681Z,101858.63
2022-12-04T03:58:43.156Z,101862.78
2022-12-04T04:01:11.775Z,101863.94
2022-12-04T04:03:52.971Z,101864.72
2022-12-04T04:06:37.797Z,101870.81
2022-12-04T04:09:11.953Z,101863.31
2022-12-04T04:11:46.699Z,101869.41
2022-12-04T04:14:45.819Z,101876.28
2022-12-04T04:17:38.697Z,101862.06
2022-12-04T04:20:37.261Z,101822.34
2022-12-04T04:23:25.136Z,101866.56
2022-12-04T04:25:54.565Z,101859.41
2022-12-04T04:28:32.711Z,101848.31
2022-12-04T04:31:55.654Z,101853.53
2022-12-04T04:34:23.242Z,101857.25
2022-12-04T04:37:01.036Z,101843.38
2022-12-04T04:39:32.942Z,101847.34
2022-12-04T04:42:05.777Z,101860.56
2022-12-04T04:44:46.420Z,101865.00
2022-12-04T04:47:28.436Z,101864.28
2022-12-04T04:49:58.328Z,101860.13
2022-12-04T04:52:26.183Z,101870.97
2022-12-04T04:54:53.895Z,101862.50
2022-12-04T04:57:31.751Z,101865.69
2022-12-04T04:59:59.409Z,101861.09
2022-12-04T05:02:27.853Z,101864.59
2022-12-04T05:04:56.290Z,101864.13
2022-12-04T05:07:23.838Z,101856.00
2022-12-04T05:09:51.409Z,101872.19
2022-12-04T05:12:18.996Z,101865.50
2022-12-04T05:14:48.821Z,101883.13
2022-12-04T05:17:16.831Z,101871.84
2022-12-04T05:19:57.239Z,101871.84
2022-12-04T05:22:36.607Z,101875.00
2022-12-04T05:25:05.025Z,101877.28
2022-12-04T05:27:33.316Z,101876.59
2022-12-04T05:30:00.946Z,101887.19
2022-12-04T05:32:30.060Z,101881.59
2022-12-04T05:34:58.838Z,101886.72
2022-12-04T05:37:26.910Z,101888.44
2022-12-04T05:39:54.824Z,101891.38
2022-12-04T05:42:22.939Z,101889.66
2022-12-04T05:44:50.721Z,101886.63
2022-12-04T05:47:18.372Z,101874.38
2022-12-04T05:49:45.909Z,101883.13
2022-12-04T05:52:13.693Z,101882.41
2022-12-04T05:54:41.635Z,101873.22
2022-12-04T05:57:09.357Z,101870.06
2022-12-04T05:59:37.051Z,101887.19
2022-12-04T06:02:04.746Z,101882.59
2022-12-04T06:04:32.268Z,101874.84
2022-12-04T06:07:00.290Z,101872.53
2022-12-04T06:09:28.792Z,101860.66
2022-12-04T06:11:59.735Z,101870.78
2022-12-04T06:14:27.609Z,101873.94
2022-12-04T06:16:55.490Z,101874.97
2022-12-04T06:19:24.190Z,101872.53
2022-12-04T06:21:54.430Z,101875.50
2022-12-04T06:24:24.832Z,101871.50
2022-12-04T06:27:27.368Z,101872.00
2022-12-04T06:29:43.940Z,101871.56
2022-12-04T06:32:14.096Z,101875.78
2022-12-04T06:34:45.597Z,101875.19
2022-12-04T06:37:13.172Z,101874.06
2022-12-04T06:39:40.732Z,101877.75
2022-12-04T06:42:08.345Z,101882.59
2022-12-04T06:44:35.916Z,101871.66
2022-12-04T06:47:04.050Z,101866.19
2022-12-04T06:49:31.573Z,101841.09
2022-12-04T06:51:59.153Z,101874.31
2022-12-04T06:54:26.719Z,101876.94
2022-12-04T06:56:54.243Z,101879.00
2022-12-04T06:59:21.801Z,101882.06
2022-12-04T07:01:49.270Z,101884.34
2022-12-04T07:04:16.783Z,101880.81
2022-12-04T07:06:44.349Z,101888.59
2022-12-04T07:09:16.418Z,101884.16
2022-12-04T07:11:45.468Z,101889.31
2022-12-04T07:14:14.537Z,101878.03
2022-12-04T07:16:43.338Z,101886.06
2022-12-04T07:19:12.823Z,101877.28
2022-12-04T07:21:40.813Z,101878.69
2022-12-04T07:24:08.431Z,101891.34
2022-12-04T07:26:36.028Z,101885.06
2022-12-04T07:29:03.499Z,101878.56
2022-12-04T07:31:31.403Z,101879.59
2022-12-04T07:33:59.736Z,101881.69
2022-12-04T07:36:28.102Z,101884.00
2022-12-04T07:38:57.512Z,101890.34
2022-12-04T07:41:25.877Z,101891.34
2022-12-04T07:43:54.867Z,101881.31
2022-12-04T07:46:26.423Z,101885.59
2022-12-04T07:48:57.009Z,101886.09
2022-12-04T07:51:27.685Z,101893.91
2022-12-04T07:54:02.647Z,101903.03
2022-12-04T07:56:31.436Z,101895.63
2022-12-04T07:59:00.332Z,101903.38
2022-12-04T08:01:29.160Z,101904.81
2022-12-04T08:03:59.314Z,101907.19
2022-12-04T08:06:29.437Z,101902.53
2022-12-04T08:08:58.533Z,101902.69
2022-12-04T08:11:28.454Z,101905.66
2022-12-04T08:14:01.944Z,101913.25
2022-12-04T08:16:31.933Z,101902.75
2022-12-04T08:19:01.189Z,101915.03
2022-12-04T08:21:31.486Z,101913.59
2022-12-04T08:24:01.213Z,101921.16
2022-12-04T08:26:31.621Z,101922.94
2022-12-04T08:29:01.451Z,101924.19
2022-12-04T08:31:31.377Z,101928.06
2022-12-04T08:34:00.448Z,101924.81
2022-12-04T08:36:29.338Z,101922.66
2022-12-04T08:38:57.718Z,101927.53
2022-12-04T08:41:27.156Z,101922.59
2022-12-04T08:43:58.134Z,101922.75
2022-12-04T08:46:28.103Z,101931.16
2022-12-04T08:48:56.665Z,101930.94
2022-12-04T08:51:27.832Z,101933.00
2022-12-04T08:53:57.215Z,101928.06
2022-12-04T08:56:26.530Z,101930.13
2022-12-04T08:58:54.925Z,101936.50
2022-12-04T09:01:22.942Z,101938.03
2022-12-04T09:03:51.047Z,101940.84
2022-12-04T09:06:19.641Z,101919.72
2022-12-04T09:08:47.692Z,101940.53
2022-12-04T09:11:19.046Z,101932.50
2022-12-04T09:13:48.549Z,101934.25
2022-12-04T09:16:20.489Z,101935.63
2022-12-04T09:18:48.896Z,101933.31
2022-12-04T09:21:19.328Z,101942.41
2022-12-04T09:23:47.803Z,101941.00
2022-12-04T09:26:36.251Z,101924.50
2022-12-04T09:29:06.075Z,101934.56
2022-12-04T09:31:35.036Z,101928.53
2022-12-04T09:34:03.458Z,101945.34
2022-12-04T09:36:31.825Z,101934.28
2022-12-04T09:39:00.096Z,101937.81
2022-12-04T09:41:34.220Z,101931.50
2022-12-04T09:44:11.612Z,101931.41
2022-12-04T09:46:44.486Z,101932.19
2022-12-04T09:49:27.714Z,101925.50
2022-12-04T09:51:59.678Z,101929.81
2022-12-04T09:54:34.001Z,101937.03
2022-12-04T09:57:12.037Z,101927.56
2022-12-04T09:59:40.082Z,101925.97
2022-12-04T10:02:10.836Z,101932.47
2022-12-04T10:04:39.293Z,101929.97
2022-12-04T10:07:48.085Z,101932.84
2022-12-04T10:10:40.495Z,101924.81
2022-12-04T10:13:14.204Z,101921.19
2022-12-04T10:16:02.058Z,101924.88
2022-12-04T10:18:48.917Z,101931.41
2022-12-04T10:21:53.654Z,101932.44
2022-12-04T10:24:42.437Z,101928.19
2022-12-04T10:27:22.464Z,101928.38
2022-12-04T10:29:55.227Z,101929.44
2022-12-04T10:32:36.132Z,101933.00
2022-12-04T10:35:17.414Z,101926.13
2022-12-04T10:37:47.211Z,101931.72
2022-12-04T10:40:34.367Z,101927.34
2022-12-04T10:43:23.704Z,101929.63
2022-12-04T10:45:51.775Z,101930.13
2022-12-04T10:48:31.623Z,101932.31
2022-12-04T10:51:00.312Z,101922.25
2022-12-04T10:53:34.743Z,101921.31
2022-12-04T10:56:18.377Z,101901.16
2022-12-04T10:59:00.253Z,101913.25
2022-12-04T11:01:32.036Z,101918.13
2022-12-04T11:04:11.245Z,101917.31
2022-12-04T11:06:43.197Z,101902.78
2022-12-04T11:09:23.686Z,101901.81
2022-12-04T11:11:52.566Z,101901.03
2022-12-04T11:14:23.623Z,101899.03
2022-12-04T11:17:03.017Z,101890.63
2022-12-04T11:19:33.802Z,101891.53
2022-12-04T11:22:16.556Z,101902.47
2022-12-04T11:24:52.247Z,101892.06
2022-12-04T11:27:32.215Z,101888.69
2022-12-04T11:30:05.413Z,101894.84
2022-12-04T11:32:35.661Z,101900.03
2022-12-04T11:35:15.408Z,101898.22
2022-12-04T11:37:45.423Z,101893.09
2022-12-04T11:40:20.941Z,101888.88
2022-12-04T11:43:20.149Z,101886.97
2022-12-04T11:46:03.881Z,101875.59
2022-12-04T11:48:42.192Z,101876.91
2022-12-04T11:51:15.997Z,101873.44
2022-12-04T11:54:10.699Z,101869.50
2022-12-04T11:56:43.172Z,101862.81
2022-12-04T11:59:16.999Z,101850.31
2022-12-04T12:02:16.366Z,101843.91
2022-12-04T12:05:19.890Z,101844.25
2022-12-04T12:08:03.260Z,101842.97
2022-12-04T12:10:44.936Z,101826.97
2022-12-04T12:13:46.999Z,101836.09
2022-12-04T12:16:29.934Z,101837.84
2022-12-04T12:19:13.053Z,101842.00
2022-12-04T12:22:05.220Z,101838.97
2022-12-04T12:24:40.916Z,101832.19
2022-12-04T12:27:27.747Z,101839.13
2022-12-04T12:29:58.263Z,101837.69
2022-12-04T12:33:04.627Z,101837.06
2022-12-04T12:35:38.753Z,101846.66
2022-12-04T12:38:42.156Z,101809.38
2022-12-04T12:41:28.753Z,101847.63
2022-12-04T12:44:04.928Z,101843.94
2022-12-04T12:46:52.807Z,101842.34
2022-12-04T12:49:32.835Z,101835.59
2022-12-04T12:52:26.994Z,101833.53
2022-12-04T12:55:02.352Z,101835.94
2022-12-04T12:57:55.401Z,101839.59
2022-12-04T13:00:25.627Z,101832.72
2022-12-04T13:03:01.688Z,101829.81
2022-12-04T13:05:39.266Z,101819.13
2022-12-04T13:08:31.718Z,101835.44
2022-12-04T13:11:15.965Z,101841.84
2022-12-04T13:14:05.341Z,101827.13
2022-12-04T13:16:41.601Z,101818.81
2022-12-04T13:19:27.083Z,101813.34
2022-12-04T13:22:02.116Z,101818.69
2022-12-04T13:24:51.713Z,101810.63
2022-12-04T13:27:51.088Z,101810.41
2022-12-04T13:30:19.114Z,101807.28
2022-12-04T13:32:50.239Z,101803.53
2022-12-04T13:35:23.607Z,101808.22
2022-12-04T13:38:07.046Z,101809.47
2022-12-04T13:40:47.911Z,101799.44
2022-12-04T13:43:21.891Z,101795.88
2022-12-04T13:45:52.045Z,101809.34
2022-12-04T13:48:52.396Z,101813.34
2022-12-04T13:51:25.058Z,101804.72
2022-12-04T13:54:14.423Z,101804.28
2022-12-04T13:56:57.441Z,101798.13
2022-12-04T13:59:37.413Z,101813.50
2022-12-04T14:02:22.191Z,101814.06
2022-12-04T14:05:05.506Z,101801.59
2022-12-04T14:07:38.522Z,101824.22
2022-12-04T14:10:15.979Z,101819.91
2022-12-04T14:12:52.140Z,101816.25
2022-12-04T14:15:25.743Z,101817.53
2022-12-04T14:18:14.708Z,101826.78
2022-12-04T14:20:44.720Z,101827.59
2022-12-04T14:23:22.725Z,101823.75
2022-12-04T14:25:51.426Z,101825.94
2022-12-04T14:28:41.973Z,101821.66
2022-12-04T14:31:10.666Z,101827.69
2022-12-04T14:33:45.843Z,101813.94
2022-12-04T14:36:42.388Z,101821.09
2022-12-04T14:39:22.433Z,101823.44
2022-12-04T14:41:51.118Z,101820.38
2022-12-04T14:44:33.117Z,101821.50
2022-12-04T14:47:16.990Z,101815.69
2022-12-04T14:50:23.849Z,101819.63
2022-12-04T14:53:16.899Z,101806.91
2022-12-04T14:55:56.647Z,101831.19
2022-12-04T14:58:31.790Z,101829.59
2022-12-04T15:01:29.060Z,101820.25
2022-12-04T15:04:00.496Z,101825.34
2022-12-04T15:06:33.566Z,101830.16
2022-12-04T15:09:17.532Z,101826.41
2022-12-04T15:12:24.000Z,101813.84
2022-12-04T15:14:52.292Z,101827.22
2022-12-04T15:17:20.459Z,101824.56
2022-12-04T15:19:48.541Z,101827.44
2022-12-04T15:22:22.646Z,101826.16
2022-12-04T15:24:52.356Z,101820.47
2022-12-04T15:27:32.073Z,101815.06
2022-12-04T15:30:02.735Z,101817.75
2022-12-04T15:32:32.443Z,101827.50
2022-12-04T15:35:05.026Z,101836.00
2022-12-04T15:37:33.911Z,101828.56
2022-12-04T15:40:06.728Z,101826.72
2022-12-04T15:42:50.449Z,101823.91
2022-12-04T15:45:19.767Z,101831.06
2022-12-04T15:47:47.600Z,101835.28
2022-12-04T15:50:18.333Z,101845.34
2022-12-04T15:52:56.549Z,101844.16
2022-12-04T15:55:26.153Z,101848.16
2022-12-04T15:58:06.120Z,101852.72
2022-12-04T16:00:40.013Z,101855.69
2022-12-04T16:03:25.333Z,101857.84
2022-12-04T16:06:16.094Z,101863.25
2022-12-04T16:08:46.422Z,101862.47
2022-12-04T16:11:20.462Z,101868.88
2022-12-04T16:13:51.174Z,101866.19
2022-12-04T16:16:22.588Z,101872.31
2022-12-04T16:18:50.697Z,101858.00
2022-12-04T16:21:21.938Z,101864.56
2022-12-04T16:23:50.232Z,101864.25
2022-12-04T16:26:20.751Z,101857.44
2022-12-04T16:28:48.629Z,101866.97
2022-12-04T16:31:20.157Z,101855.94
2022-12-04T16:33:47.961Z,101861.50
2022-12-04T16:36:16.007Z,101854.81
2022-12-04T16:38:43.977Z,101863.69
2022-12-04T16:41:21.980Z,101856.56
2022-12-04T16:43:58.964Z,101870.47
2022-12-04T16:46:30.957Z,101873.50
2022-12-04T16:49:04.285Z,101860.00
2022-12-04T16:51:56.462Z,101865.19
2022-12-04T16:54:24.542Z,101855.25
2022-12-04T16:56:52.711Z,101863.75
2022-12-04T16:59:20.599Z,101851.59
2022-12-04T17:01:50.473Z,101869.16
2022-12-04T17:04:19.442Z,101859.72
2022-12-04T17:06:48.071Z,101870.78
2022-12-04T17:09:17.271Z,101853.22
2022-12-04T17:11:45.953Z,101863.41
2022-12-04T17:14:15.055Z,101864.22
2022-12-04T17:16:46.881Z,101869.50
2022-12-04T17:19:15.528Z,101857.50
2022-12-04T17:21:45.111Z,101862.75
2022-12-04T17:24:13.442Z,101852.38
2022-12-04T17:26:41.865Z,101860.09
2022-12-04T17:29:09.842Z,101863.22
2022-12-04T17:31:37.884Z,101850.91
2022-12-04T17:34:05.999Z,101860.19
2022-12-04T17:36:33.847Z,101860.50
2022-12-04T17:39:02.736Z,101854.72
2022-12-04T17:41:31.024Z,101868.47
2022-12-04T17:44:00.963Z,101864.81
2022-12-04T17:46:29.216Z,101867.16
2022-12-04T17:49:01.586Z,101869.09
2022-12-04T17:51:35.103Z,101857.97
2022-12-04T17:54:02.776Z,101870.38
2022-12-04T17:56:31.266Z,101858.22
2022-12-04T17:58:59.255Z,101870.72
2022-12-04T18:01:29.196Z,101879.50
2022-12-04T18:04:03.327Z,101870.88
2022-12-04T18:06:36.373Z,101877.31
2022-12-04T18:09:05.192Z,101871.16
2022-12-04T18:11:35.102Z,101876.75
2022-12-04T18:14:11.686Z,101878.41
2022-12-04T18:16:43.229Z,101871.31
2022-12-04T18:19:12.284Z,101884.13
2022-12-04T18:21:40.379Z,101871.16
2022-12-04T18:24:08.367Z,101884.56
2022-12-04T18:26:42.361Z,101888.91
2022-12-04T18:29:11.761Z,101885.09
2022-12-04T18:31:39.501Z,101884.19
2022-12-04T18:34:08.045Z,101885.94
2022-12-04T18:36:38.681Z,101887.00
2022-12-04T18:39:09.385Z,101888.75
2022-12-04T18:41:37.599Z,101880.09
2022-12-04T18:44:05.358Z,101888.44
2022-12-04T18:46:33.165Z,101878.06
2022-12-04T18:49:02.200Z,101880.09
2022-12-04T18:51:35.509Z,101880.41
2022-12-04T18:54:06.272Z,101887.44
2022-12-04T18:56:35.851Z,101888.91
2022-12-04T18:59:08.103Z,101889.19
2022-12-04T19:01:35.860Z,101893.31
2022-12-04T19:04:05.523Z,101884.94
2022-12-04T19:06:36.358Z,101898.13
2022-12-04T19:09:07.467Z,101880.25
2022-12-04T19:11:35.565Z,101887.44
2022-12-04T19:14:10.293Z,101883.78
2022-12-04T19:16:43.693Z,101890.28
2022-12-04T19:19:15.641Z,101889.34
2022-12-04T19:21:44.316Z,101885.81
2022-12-04T19:24:12.341Z,101892.41
2022-12-04T19:26:40.166Z,101892.50
2022-12-04T19:29:08.318Z,101897.69
2022-12-04T19:31:37.621Z,101887.72
2022-12-04T19:34:06.619Z,101893.16
2022-12-04T19:36:37.567Z,101898.78
2022-12-04T19:39:07.443Z,101902.50
2022-12-04T19:41:37.148Z,101906.78
2022-12-04T19:44:26.309Z,101908.91
2022-12-04T19:46:53.842Z,101913.81
2022-12-04T19:49:21.291Z,101894.03
2022-12-04T19:51:49.844Z,101888.19
2022-12-04T19:54:17.893Z,101893.31
2022-12-04T19:56:49.007Z,101873.88
2022-12-04T19:59:16.509Z,101897.69
2022-12-04T20:01:44.621Z,101902.66
2022-12-04T20:04:12.326Z,101900.69
2022-12-04T20:06:47.252Z,101897.38
2022-12-04T20:09:20.141Z,101905.38
2022-12-04T20:11:48.464Z,101903.56
2022-12-04T20:14:16.478Z,101912.00
2022-12-04T20:16:46.693Z,101897.38
2022-12-04T20:19:19.551Z,101911.19
2022-12-04T20:21:47.800Z,101911.03
2022-12-04T20:24:17.607Z,101911.91
2022-12-04T20:26:47.019Z,101904.13
2022-12-04T20:29:19.032Z,101908.38
2022-12-04T20:31:47.466Z,101900.09
2022-12-04T20:34:18.529Z,101896.06
2022-12-04T20:36:48.619Z,101894.81
2022-12-04T20:39:17.721Z,101892.56
2022-12-04T20:41:45.355Z,101893.88
2022-12-04T20:44:19.091Z,101898.13
2022-12-04T20:46:47.014Z,101901.34
2022-12-04T20:49:21.640Z,101904.72
2022-12-04T20:51:50.826Z,101903.25
2022-12-04T20:54:20.196Z,101915.31
2022-12-04T20:56:49.154Z,101907.94
2022-12-04T20:59:19.135Z,101916.75
2022-12-04T21:01:49.045Z,101908.69
2022-12-04T21:04:17.985Z,101915.44
2022-12-04T21:06:46.587Z,101911.69
2022-12-04T21:09:24.739Z,101909.44
2022-12-04T21:11:55.035Z,101916.41
2022-12-04T21:14:51.072Z,101912.34
2022-12-04T21:17:21.217Z,101915.59
2022-12-04T21:19:51.107Z,101912.34
2022-12-04T21:22:19.817Z,101914.19
2022-12-04T21:24:47.505Z,101914.41
2022-12-04T21:27:20.711Z,101914.41
2022-12-04T21:29:49.453Z,101889.94
2022-12-04T21:32:17.009Z,101905.75
2022-12-04T21:34:44.790Z,101915.50
2022-12-04T21:37:12.345Z,101904.56
2022-12-04T21:39:39.919Z,101907.16
2022-12-04T21:42:36.513Z,101905.97
2022-12-04T21:45:07.703Z,101909.28
2022-12-04T21:47:37.203Z,101911.19
2022-12-04T21:50:05.970Z,101902.25
2022-12-04T21:52:33.432Z,101913.81
2022-12-04T21:55:00.981Z,101915.16
2022-12-04T21:57:29.520Z,101915.31
2022-12-04T21:59:57.329Z,101908.84
2022-12-04T22:02:25.176Z,101910.75
2022-12-04T22:04:52.693Z,101908.97
2022-12-04T22:07:20.272Z,101904.31
2022-12-04T22:09:47.893Z,101893.88
2022-12-04T22:12:41.175Z,101911.78
2022-12-04T22:15:05.614Z,101916.16
2022-12-04T22:17:33.219Z,101911.34
2022-12-04T22:20:00.718Z,101916.47
2022-12-04T22:22:28.323Z,101919.81
2022-12-04T22:24:55.849Z,101919.81
2022-12-04T22:27:23.758Z,101904.56
2022-12-04T22:29:51.646Z,101910.44
2022-12-04T22:32:20.814Z,101916.31
2022-12-04T22:34:49.749Z,101914.50
2022-12-04T22:37:17.536Z,101911.19
2022-12-04T22:39:45.087Z,101913.59
2022-12-04T22:42:12.605Z,101915.66
2022-12-04T22:44:42.600Z,101915.50
2022-12-04T22:47:11.695Z,101905.53
2022-12-04T22:49:40.405Z,101918.38
2022-12-04T22:52:07.949Z,101913.31
2022-12-04T22:54:35.464Z,101922.84
2022-12-04T22:57:02.970Z,101910.00
2022-12-04T22:59:30.749Z,101910.28
2022-12-04T23:02:00.047Z,101903.69
2022-12-04T23:04:28.169Z,101908.69
2022-12-04T23:06:55.772Z,101911.91
2022-12-04T23:09:23.282Z,101904.47
2022-12-04T23:11:55.036Z,101904.41
2022-12-04T23:14:23.033Z,101893.13
2022-12-04T23:16:50.789Z,101892.19
2022-12-04T23:19:20.356Z,101891.66
2022-12-04T23:21:55.054Z,101859.19
2022-12-04T23:24:24.713Z,101884.75
2022-12-04T23:26:52.319Z,101891.78
2022-12-04T23:32:07.413Z,101891.28
2022-12-04T23:34:34.921Z,101892.22
2022-12-04T23:37:02.461Z,101892.22
2022-12-04T23:39:30.056Z,101890.81
2022-12-04T23:41:57.535Z,101902.91
2022-12-04T23:44:25.053Z,101895.97
2022-12-04T23:46:52.583Z,101892.66
2022-12-04T23:49:20.278Z,101894.19
2022-12-04T23:51:47.722Z,101892.84
2022-12-04T23:54:15.326Z,101891.00
2022-12-04T23:56:42.870Z,101897.25
2022-12-04T23:59:10.655Z,101886.16
